Time;durP1;ratioP1;P1;durP2;ratioP2;P2;SDS_P1;SDS_P2;PMS_P1;PMS_P2;Temp;Humidity;BMP_temperature;BMP_pressure;BME280_temperature;BME280_humidity;BME280_pressure;Samples;Min_cycle;Max_cycle;Signal;HPM_P1;HPM_P2
2022/11/09 00:02:47;;;;;;;10.80;5.40;;;;;;;-0.37;68.24;97534.34;6289375;28;20127;-69
2022/11/09 00:05:56;;;;;;;8.98;6.05;;;;;;;-0.35;68.83;97526.59;6286761;28;20056;-70
2022/11/09 00:09:02;;;;;;;11.52;6.78;;;;;;;-0.38;68.19;97529.22;6285956;28;20048;-70
2022/11/09 00:12:09;;;;;;;12.82;7.28;;;;;;;-0.33;68.09;97532.63;6293094;28;21317;-70
2022/11/09 00:15:13;;;;;;;9.20;5.57;;;;;;;-0.35;68.86;97531.75;6296836;28;20039;-69
2022/11/09 00:18:19;;;;;;;9.30;6.15;;;;;;;-0.39;69.28;97536.13;6291816;28;20040;-70
2022/11/09 00:21:24;;;;;;;6.78;4.43;;;;;;;-0.39;68.84;97541.28;6282970;28;20489;-69
2022/11/09 00:24:30;;;;;;;13.07;5.95;;;;;;;-0.30;68.94;97541.19;6284762;28;20460;-69
2022/11/09 00:27:34;;;;;;;10.40;5.95;;;;;;;-0.38;68.92;97539.56;6286281;28;20036;-70
2022/11/09 00:30:40;;;;;;;8.18;4.63;;;;;;;-0.37;69.11;97543.84;6287903;28;20036;-69
2022/11/09 00:33:46;;;;;;;10.52;6.35;;;;;;;-0.34;69.27;97534.34;6285318;28;20036;-70
2022/11/09 00:36:50;;;;;;;8.35;5.28;;;;;;;-0.26;68.60;97542.00;6287252;28;20842;-69
2022/11/09 00:39:54;;;;;;;10.50;5.55;;;;;;;-0.40;68.90;97542.16;6288447;28;20126;-70
2022/11/09 00:42:57;;;;;;;;;;;;;;;-0.32;68.63;97547.25;6286671;28;20494;-70
2022/11/09 00:46:01;;;;;;;8.02;3.47;;;;;;;-0.28;68.60;97554.13;6291397;28;20369;-70
2022/11/09 00:49:06;;;;;;;11.27;6.63;;;;;;;-0.32;68.73;97557.59;6288525;28;20040;-70
2022/11/09 00:52:08;;;;;;;;;;;;;;;-0.38;68.69;97555.91;6286261;28;20040;-68
2022/11/09 00:55:12;;;;;;;9.85;5.97;;;;;;;-0.50;69.48;97556.91;6287627;28;19924;-68
2022/11/09 00:58:19;;;;;;;11.82;6.38;;;;;;;-0.52;69.74;97561.22;6286636;28;20197;-70
2022/11/09 01:01:24;;;;;;;12.02;7.07;;;;;;;-0.47;69.68;97559.47;6286859;28;20044;-70
2022/11/09 01:04:29;;;;;;;13.23;7.13;;;;;;;-0.47;69.45;97558.59;6282842;28;20052;-71
2022/11/09 01:07:31;;;;;;;;;;;;;;;-0.46;69.12;97556.00;6284520;28;20138;-68
2022/11/09 01:10:38;;;;;;;9.55;6.10;;;;;;;-0.44;69.43;97555.13;6283248;28;19920;-71
2022/11/09 01:13:43;;;;;;;9.02;4.63;;;;;;;-0.32;69.19;97552.41;6290851;28;20044;-69
2022/11/09 01:16:48;;;;;;;10.13;5.43;;;;;;;-0.33;69.28;97555.88;6283799;28;20657;-70
2022/11/09 01:19:50;;;;;;;;;;;;;;;-0.15;68.65;97560.84;6282305;28;20042;-70
2022/11/09 01:22:54;;;;;;;9.45;5.53;;;;;;;-0.34;68.98;97559.31;6285214;28;19923;-70
2022/11/09 01:26:01;;;;;;;8.98;4.88;;;;;;;-0.27;69.60;97561.84;6289891;28;20742;-70
2022/11/09 01:29:06;;;;;;;10.55;5.68;;;;;;;-0.24;68.70;97560.94;6287161;28;20036;-69
2022/11/09 01:32:11;;;;;;;11.43;6.85;;;;;;;-0.24;68.89;97558.38;6281670;28;20036;-69
2022/11/09 01:35:15;;;;;;;8.98;5.70;;;;;;;-0.22;68.63;97561.78;6283921;28;20044;-69
2022/11/09 01:38:17;;;;;;;;;;;;;;;-0.24;69.63;97560.94;6290066;28;20639;-69
2022/11/09 01:41:25;;;;;;;9.73;5.28;;;;;;;-0.13;68.42;97566.84;6301380;28;19912;-69
2022/11/09 01:44:33;;;;;;;6.03;4.22;;;;;;;-0.15;68.85;97560.84;6299864;28;20040;-69
2022/11/09 01:47:37;;;;;;;6.65;4.20;;;;;;;-0.02;68.12;97559.84;6303389;28;20040;-69
2022/11/09 01:50:56;;;;;;;5.80;3.70;;;;;;;0.01;68.13;97547.75;6313775;28;20075;-71
2022/11/09 01:54:10;;;;;;;7.03;4.85;;;;;;;-0.13;68.87;97546.16;6299388;28;20433;-68
2022/11/09 01:57:26;;;;;;;8.80;4.88;;;;;;;-0.13;68.80;97547.91;6304643;28;20190;-71
2022/11/09 02:00:33;;;;;;;6.68;3.95;;;;;;;-0.18;68.94;97540.19;6300664;28;20089;-69
2022/11/09 02:03:48;;;;;;;8.05;4.40;;;;;;;-0.17;68.83;97536.75;6301298;28;20052;-69
2022/11/09 02:06:53;;;;;;;6.88;4.30;;;;;;;-0.21;69.30;97544.53;6290187;28;20076;-68
2022/11/09 02:10:09;;;;;;;5.68;3.92;;;;;;;-0.18;69.25;97539.34;6293106;28;20055;-69
2022/11/09 02:13:16;;;;;;;6.03;3.92;;;;;;;-0.14;69.66;97547.06;6285275;28;20032;-69
2022/11/09 02:16:41;;;;;;;11.07;5.65;;;;;;;-0.08;68.96;97552.16;6286676;28;21869;-69
2022/11/09 02:19:43;;;;;;;;;;;;;;;-0.04;68.33;97558.97;6287404;28;21625;-69
2022/11/09 02:22:46;;;;;;;8.52;5.20;;;;;;;0.02;68.05;97552.03;6290848;28;20110;-70
2022/11/09 02:25:56;;;;;;;;;;;;;;;0.16;67.60;97561.31;6291378;28;20309;-70
2022/11/09 02:29:05;;;;;;;6.50;4.32;;;;;;;0.12;67.35;97558.81;6290109;28;20540;-70
2022/11/09 02:32:19;;;;;;;10.75;5.80;;;;;;;-0.03;67.98;97552.97;6289620;28;20036;-70
2022/11/09 02:35:23;;;;;;;5.90;3.67;;;;;;;0.22;66.62;97569.00;6287471;28;20044;-70
2022/11/09 02:38:27;;;;;;;8.18;4.72;;;;;;;0.16;66.75;97571.69;6292655;28;20036;-70
2022/11/09 02:41:37;;;;;;;6.10;3.67;;;;;;;0.05;66.99;97562.34;6287721;28;20044;-69
2022/11/09 02:44:46;;;;;;;6.68;4.05;;;;;;;0.13;67.42;97571.72;6291545;28;20096;-71
2022/11/09 02:47:51;;;;;;;9.02;3.90;;;;;;;0.05;67.46;97563.19;6285549;28;20185;-71
2022/11/09 02:50:55;;;;;;;10.13;5.15;;;;;;;0.10;67.46;97568.31;6290777;28;20406;-69
2022/11/09 02:53:59;;;;;;;5.88;3.53;;;;;;;0.11;66.81;97551.91;6286228;28;20028;-70
2022/11/09 02:57:03;;;;;;;;;;;;;;;0.25;67.41;97556.91;6284238;28;20036;-70
2022/11/09 03:00:07;;;;;;;7.93;4.43;;;;;;;-0.02;67.59;97561.56;6286887;28;21095;-69
2022/11/09 03:03:11;;;;;;;5.82;3.05;;;;;;;-0.08;68.34;97552.16;6282004;28;20385;-69
2022/11/09 03:06:13;;;;;;;;;;;;;;;-0.04;67.73;97552.97;6289867;28;20040;-69
2022/11/09 03:09:18;;;;;;;9.60;4.53;;;;;;;-0.13;68.99;97555.66;6285255;28;19924;-69
2022/11/09 03:12:29;;;;;;;8.27;5.05;;;;;;;-0.02;68.50;97561.56;6287618;28;20398;-72
2022/11/09 03:15:34;;;;;;;8.07;4.15;;;;;;;-0.13;68.79;97564.28;6281498;28;20074;-70
2022/11/09 03:18:38;;;;;;;5.72;4.18;;;;;;;0.01;68.66;97571.03;6285045;28;20048;-70
2022/11/09 03:21:41;;;;;;;6.07;3.83;;;;;;;0.16;67.92;97576.00;6286198;28;20044;-70
2022/11/09 03:24:44;;;;;;;;;;;;;;;0.31;67.24;97568.06;6302703;28;20036;-70
2022/11/09 03:27:47;;;;;;;7.40;3.55;;;;;;;0.12;67.73;97567.44;6295979;28;20309;-71
2022/11/09 03:30:51;;;;;;;5.30;4.00;;;;;;;0.15;67.49;97569.13;6297678;28;20048;-71
2022/11/09 03:33:56;;;;;;;6.57;4.35;;;;;;;0.00;67.84;97575.34;6287669;28;20489;-70
2022/11/09 03:37:00;;;;;;;5.15;3.17;;;;;;;0.18;67.53;97569.94;6290834;28;20048;-70
2022/11/09 03:40:02;;;;;;;7.35;3.38;;;;;;;0.05;68.11;97567.50;6287026;28;20040;-70
2022/11/09 03:43:07;;;;;;;;;;;;;;;0.03;68.21;97574.44;6287029;28;20101;-69
2022/11/09 03:46:12;;;;;;;3.40;2.35;;;;;;;0.07;68.03;97568.34;6288136;28;20403;-69
2022/11/09 03:49:15;;;;;;;6.32;3.58;;;;;;;0.07;68.22;97563.19;6284169;28;20044;-70
2022/11/09 03:52:18;;;;;;;5.53;3.70;;;;;;;-0.07;68.30;97569.38;6285560;28;20040;-69
2022/11/09 03:55:25;;;;;;;4.75;2.63;;;;;;;0.22;67.64;97576.78;6285252;28;20052;-69
2022/11/09 03:58:29;;;;;;;4.07;3.13;;;;;;;0.15;67.73;97579.47;6285938;28;20036;-70
2022/11/09 04:01:33;;;;;;;;;;;;;;;0.03;67.93;97571.84;6288542;28;20036;-70
2022/11/09 04:04:37;;;;;;;4.28;3.35;;;;;;;-0.07;68.15;97569.38;6283978;28;19920;-70
2022/11/09 04:07:45;;;;;;;4.23;2.97;;;;;;;0.18;67.17;97579.44;6284348;28;20089;-69
2022/11/09 04:10:50;;;;;;;6.78;3.17;;;;;;;0.05;67.31;97583.03;6287225;28;20183;-69
2022/11/09 04:13:55;;;;;;;4.88;3.38;;;;;;;0.17;67.31;97578.59;6285743;28;20028;-70
2022/11/09 04:17:00;;;;;;;4.10;2.67;;;;;;;0.30;67.15;97579.28;6282518;28;20128;-71
2022/11/09 06:54:31;;;;;;;7.20;5.10;;;;;;;2.57;65.52;97610.88;6280408;27;1750780;-71
2022/11/09 06:57:35;;;;;;;4.97;4.03;;;;;;;2.74;65.10;97620.91;6337918;27;20039;-73
2022/11/09 07:00:38;;;;;;;6.40;4.38;;;;;;;2.93;63.99;97611.81;6339133;27;20036;-70
2022/11/09 07:03:42;;;;;;;7.70;5.45;;;;;;;3.08;63.20;97614.03;6338265;27;20035;-71
2022/11/09 07:06:43;;;;;;;4.80;3.45;;;;;;;3.15;62.67;97607.81;6340590;27;20039;-71
2022/11/09 07:09:47;;;;;;;4.60;3.30;;;;;;;3.05;62.28;97608.91;6339916;27;20031;-71
2022/11/09 07:12:55;;;;;;;4.50;3.22;;;;;;;3.23;61.27;97606.78;6344139;27;20080;-72
2022/11/09 07:16:01;;;;;;;4.53;2.83;;;;;;;3.12;61.15;97612.25;6356697;27;20031;-72
2022/11/09 07:19:05;;;;;;;3.20;2.35;;;;;;;3.08;61.25;97608.84;6351416;27;20039;-71
2022/11/09 07:22:09;;;;;;;2.70;2.47;;;;;;;3.11;60.77;97602.72;6352617;27;20043;-73
2022/11/09 07:25:13;;;;;;;2.30;2.00;;;;;;;3.05;60.69;97606.31;6351092;27;20032;-71
2022/11/09 07:28:19;;;;;;;3.53;2.88;;;;;;;2.97;61.31;97610.84;6348914;27;20043;-72
2022/11/09 07:31:28;;;;;;;3.78;3.22;;;;;;;2.90;61.41;97593.69;6352388;27;20039;-72
2022/11/09 07:34:34;;;;;;;4.10;2.80;;;;;;;3.11;61.00;97608.81;6333597;27;20039;-72
2022/11/09 07:37:36;;;;;;;2.90;2.58;;;;;;;3.10;60.47;97599.28;6352752;27;20580;-71
2022/11/09 07:40:39;;;;;;;1.85;1.65;;;;;;;3.13;60.61;97603.56;6349233;27;20497;-72
2022/11/09 07:43:43;;;;;;;3.42;2.00;;;;;;;3.17;60.35;97602.59;6336317;27;20523;-71
2022/11/09 07:46:51;;;;;;;2.67;2.22;;;;;;;3.21;60.21;97603.38;6335830;27;20028;-71
2022/11/09 07:49:52;;;;;;;1.52;1.42;;;;;;;3.20;60.43;97604.25;6337838;27;20054;-72
2022/11/09 07:53:01;;;;;;;3.92;2.20;;;;;;;3.09;60.48;97600.19;6333494;27;20052;-73
2022/11/09 07:56:05;;;;;;;2.95;2.17;;;;;;;3.19;60.38;97602.56;6320154;27;20047;-73
2022/11/09 07:59:11;;;;;;;3.03;2.22;;;;;;;3.45;59.50;97617.53;6320049;27;20490;-71
2022/11/09 08:02:15;;;;;;;4.85;3.42;;;;;;;3.39;59.79;97600.31;6320209;27;20127;-71
2022/11/09 08:05:19;;;;;;;5.05;3.88;;;;;;;3.50;59.39;97606.09;6322760;28;20046;-71
2022/11/09 08:08:23;;;;;;;7.15;4.68;;;;;;;3.53;59.42;97598.22;6320771;27;20036;-71
2022/11/09 08:11:26;;;;;;;7.47;4.18;;;;;;;3.62;59.14;97609.28;6323424;28;20036;-71
2022/11/09 08:14:31;;;;;;;4.63;3.67;;;;;;;3.74;58.42;97611.59;6322436;27;20467;-71
2022/11/09 08:17:36;;;;;;;8.70;4.68;;;;;;;3.59;59.02;97621.50;6322035;27;20050;-70
2022/11/09 08:20:39;;;;;;;6.35;4.38;;;;;;;3.55;59.32;97617.25;6322319;27;20451;-70
2022/11/09 08:23:41;;;;;;;3.97;3.47;;;;;;;3.64;59.13;97610.13;6321307;27;20497;-71
2022/11/09 08:26:42;;;;;;;2.67;2.28;;;;;;;3.74;59.34;97611.59;6320040;27;20043;-71
2022/11/09 08:29:46;;;;;;;3.92;2.38;;;;;;;3.89;58.59;97608.59;6318576;27;20497;-71
2022/11/09 08:32:50;;;;;;;2.47;2.13;;;;;;;3.97;57.82;97598.81;6322037;27;21783;-70
2022/11/09 08:35:52;;;;;;;2.85;2.50;;;;;;;3.94;57.94;97621.50;6321139;27;20086;-70
2022/11/09 08:38:53;;;;;;;2.00;1.52;;;;;;;3.97;57.89;97613.59;6320621;27;20043;-70
2022/11/09 08:41:57;;;;;;;1.95;1.85;;;;;;;3.96;58.18;97610.16;6319060;27;20044;-70
2022/11/09 08:45:00;;;;;;;1.85;1.70;;;;;;;4.13;57.67;97609.66;6321925;27;20039;-71
2022/11/09 08:48:03;;;;;;;1.90;1.52;;;;;;;4.04;58.04;97608.16;6318120;27;20043;-71
2022/11/09 08:51:05;;;;;;;2.55;1.60;;;;;;;4.16;56.99;97612.22;6318934;27;20494;-71
2022/11/09 08:54:10;;;;;;;1.90;1.75;;;;;;;3.95;57.75;97608.41;6316350;27;20119;-71
2022/11/09 08:57:12;;;;;;;1.70;1.40;;;;;;;3.98;57.79;97613.53;6317440;27;20659;-71
2022/11/09 09:00:14;;;;;;;1.73;1.50;;;;;;;3.98;58.04;97603.13;6323380;27;20031;-70
2022/11/09 09:03:15;;;;;;;2.20;1.90;;;;;;;3.95;58.39;97605.81;6330216;27;20043;-71
2022/11/09 09:06:18;;;;;;;2.15;1.95;;;;;;;4.07;58.22;97596.81;6329670;27;20532;-70
2022/11/09 09:09:22;;;;;;;2.53;1.85;;;;;;;4.33;57.05;97587.41;6332737;27;20047;-70
2022/11/09 09:12:23;;;;;;;3.17;1.92;;;;;;;4.12;57.46;97588.88;6318395;27;20088;-70
2022/11/09 09:15:24;;;;;;;3.83;2.90;;;;;;;4.17;57.40;97597.44;6333616;28;20112;-70
2022/11/09 09:18:30;;;;;;;2.15;1.55;;;;;;;4.04;57.63;97589.94;6341988;28;20044;-70
2022/11/09 09:21:41;;;;;;;2.63;2.15;;;;;;;4.07;57.60;97590.75;6341505;27;20439;-70
2022/11/09 09:24:45;;;;;;;2.33;2.13;;;;;;;3.84;58.25;97597.44;6346279;28;20040;-71
2022/11/09 09:27:48;;;;;;;4.25;2.78;;;;;;;3.60;59.14;97591.97;6329477;27;20046;-70
2022/11/09 09:30:52;;;;;;;3.83;2.83;;;;;;;3.64;59.50;97592.75;6326548;27;20047;-72
2022/11/09 09:33:56;;;;;;;3.33;2.85;;;;;;;3.77;59.11;97588.09;6318784;28;20047;-71
2022/11/09 09:37:01;;;;;;;2.80;2.38;;;;;;;3.72;59.38;97579.53;6320931;28;20047;-72
2022/11/09 09:40:03;;;;;;;4.28;2.97;;;;;;;3.61;59.55;97579.81;6321994;27;20038;-71
2022/11/09 09:43:04;;;;;;;3.60;3.13;;;;;;;3.60;59.75;97583.31;6318147;28;20051;-72
2022/11/09 09:46:21;;;;;;;2.40;2.20;;;;;;;3.65;59.93;97580.59;6320108;27;20048;-72
2022/11/09 09:49:28;;;;;;;3.45;3.10;;;;;;;3.56;59.63;97598.13;6321846;28;20040;-70
2022/11/09 09:52:32;;;;;;;2.88;2.67;;;;;;;3.55;60.15;97590.38;6317086;28;20128;-76
2022/11/09 09:55:42;;;;;;;4.80;2.90;;;;;;;3.51;59.83;97587.03;6324551;28;20418;-75
2022/11/09 09:58:50;;;;;;;3.30;2.80;;;;;;;3.48;59.71;97587.09;6335363;28;20494;-74
2022/11/09 10:01:56;;;;;;;3.08;2.42;;;;;;;3.60;59.15;97594.59;6338406;28;20039;-76
2022/11/09 10:05:00;;;;;;;3.50;2.70;;;;;;;3.52;59.23;97587.88;6345270;28;20089;-75
2022/11/09 10:08:29;;;;;;;3.17;2.22;;;;;;;3.47;59.83;97577.56;6335610;28;20031;-74
2022/11/09 10:11:51;;;;;;;2.30;2.08;;;;;;;3.55;59.38;97579.97;6329590;28;20418;-75
2022/11/09 10:15:29;;;;;;;2.58;2.05;;;;;;;3.60;59.40;97586.78;6336736;28;20032;-75
2022/11/09 10:19:04;;;;;;;2.33;1.70;;;;;;;3.55;59.00;97569.56;6319099;28;20087;-74
2022/11/09 10:22:10;;;;;;;3.50;2.33;;;;;;;3.45;59.33;97581.94;6333775;28;20071;-75
2022/11/09 10:25:24;;;;;;;2.75;2.25;;;;;;;3.34;59.67;97589.16;6344143;28;20113;-75
2022/11/09 10:28:28;;;;;;;2.75;1.77;;;;;;;3.45;59.49;97583.69;6338825;28;20153;-75
2022/11/09 10:31:40;;;;;;;3.78;2.50;;;;;;;3.45;59.34;97581.09;6340160;28;20050;-74
2022/11/09 10:35:13;;;;;;;4.20;3.20;;;;;;;3.35;59.81;97593.50;6346150;28;20056;-75
2022/11/09 10:38:32;;;;;;;5.32;3.95;;;;;;;3.36;59.77;97580.44;6341768;28;20047;-73
2022/11/09 10:41:45;;;;;;;3.28;2.67;;;;;;;3.50;59.44;97590.50;6333826;28;20032;-73
2022/11/09 10:44:49;;;;;;;3.63;2.20;;;;;;;3.51;59.35;97607.84;6336981;28;20052;-75
2022/11/09 10:47:56;;;;;;;4.00;2.70;;;;;;;3.40;59.49;97594.25;6343169;28;20044;-74
2022/11/09 10:51:03;;;;;;;7.03;3.28;;;;;;;3.18;59.93;97593.91;6334302;28;20044;-73
2022/11/09 10:54:26;;;;;;;4.45;3.28;;;;;;;3.14;60.60;97595.72;6335553;28;20055;-75
2022/11/09 10:57:32;;;;;;;3.72;2.65;;;;;;;2.79;61.43;97596.53;6337344;28;20036;-73
2022/11/09 11:00:35;;;;;;;4.18;3.45;;;;;;;2.81;61.77;97601.69;6337460;28;20054;-74
2022/11/09 11:03:38;;;;;;;4.95;3.45;;;;;;;2.79;61.48;97603.47;6340176;28;20070;-73
2022/11/09 11:06:39;;;;;;;5.57;3.30;;;;;;;2.71;61.97;97598.44;6336652;28;20082;-68
2022/11/09 11:09:44;;;;;;;4.32;2.70;;;;;;;2.77;61.98;97592.25;6326025;28;20087;-68
2022/11/09 11:13:16;;;;;;;6.25;4.10;;;;;;;2.61;62.44;97592.59;6331616;28;20049;-74
2022/11/09 11:16:31;;;;;;;5.30;3.47;;;;;;;2.48;62.75;97601.53;6325693;28;20514;-71
2022/11/09 11:19:32;;;;;;;4.75;3.20;;;;;;;2.40;63.27;97591.28;6328784;28;20044;-71
2022/11/09 11:22:37;;;;;;;5.38;3.53;;;;;;;2.26;63.57;97598.50;6327442;28;20406;-71
2022/11/09 11:26:10;;;;;;;3.95;3.20;;;;;;;2.39;63.59;97597.38;6333386;28;20043;-70
2022/11/09 11:29:52;;;;;;;4.88;3.72;;;;;;;2.30;63.68;97596.72;6320882;28;20130;-70
2022/11/09 11:32:56;;;;;;;4.43;2.87;;;;;;;2.39;63.45;97602.56;6337225;28;20039;-76
2022/11/09 11:36:33;;;;;;;4.50;3.45;;;;;;;2.30;63.92;97602.78;6337659;28;20488;-77
2022/11/09 11:39:46;;;;;;;6.72;4.03;;;;;;;2.13;64.59;97604.84;6338809;28;20044;-67
2022/11/09 11:42:57;;;;;;;7.20;4.28;;;;;;;2.06;64.58;97596.31;6326785;28;20043;-75
2022/11/09 11:46:01;;;;;;;;;;;;;;;2.09;64.94;97587.59;6331796;28;20043;-75
2022/11/09 11:49:57;;;;;;;5.90;3.10;;;;;;;1.99;64.74;97597.31;6335411;28;19927;-76
2022/11/09 11:53:24;;;;;;;4.32;3.30;;;;;;;1.99;64.98;97597.31;6293897;28;20051;-77
2022/11/09 11:56:35;;;;;;;3.75;3.10;;;;;;;1.93;65.20;97587.06;6344669;28;20128;-75
2022/11/09 11:59:59;;;;;;;3.25;2.78;;;;;;;2.00;64.82;97580.84;6345711;28;20035;-74
2022/11/09 12:03:30;;;;;;;4.73;3.83;;;;;;;2.03;65.08;97605.00;6327365;28;20040;-75
2022/11/09 12:07:06;;;;;;;8.75;3.88;;;;;;;2.07;65.13;97579.88;6338244;28;20051;-76
2022/11/09 12:10:40;;;;;;;3.88;3.35;;;;;;;2.03;65.17;97588.59;6280275;27;20043;-68
2022/11/09 12:13:56;;;;;;;4.55;3.25;;;;;;;1.97;65.26;97583.50;6323742;28;20073;-71
2022/11/09 12:17:16;;;;;;;6.05;4.47;;;;;;;1.89;65.71;97585.41;6331850;28;20525;-68
2022/11/09 12:20:39;;;;;;;6.95;4.18;;;;;;;1.94;65.91;97574.03;6327217;27;20569;-68
2022/11/09 12:23:51;;;;;;;5.10;4.10;;;;;;;1.82;66.09;97578.63;6334176;27;20414;-69
2022/11/09 12:27:21;;;;;;;5.25;3.00;;;;;;;1.87;65.67;97571.59;6334623;27;20417;-67
2022/11/09 12:30:49;;;;;;;5.10;3.72;;;;;;;1.68;66.34;97566.75;6307743;28;20076;-68
2022/11/09 12:34:06;;;;;;;4.50;3.90;;;;;;;1.59;66.90;97563.50;6314814;27;20040;-68
2022/11/09 12:37:15;;;;;;;4.80;3.13;;;;;;;1.62;66.69;97579.00;6330959;28;21733;-69
2022/11/09 12:40:28;;;;;;;6.00;3.70;;;;;;;1.52;67.07;97573.09;6328700;28;20036;-68
2022/11/09 12:43:53;;;;;;;5.27;3.37;;;;;;;1.39;67.68;97553.44;6329877;28;20052;-69
2022/11/09 12:47:02;;;;;;;4.18;2.92;;;;;;;1.30;67.83;97560.53;6331294;28;20044;-69
2022/11/09 12:50:04;;;;;;;6.97;3.25;;;;;;;1.29;68.20;97550.16;6334740;27;20115;-68
2022/11/09 12:53:09;;;;;;;6.60;3.50;;;;;;;1.16;68.74;97552.13;6332096;28;20188;-69
2022/11/09 12:56:23;;;;;;;6.00;3.72;;;;;;;1.24;69.30;97570.97;6328460;27;21357;-69
2022/11/09 12:59:27;;;;;;;6.07;3.72;;;;;;;1.02;69.47;97560.13;6329330;27;20473;-67
2022/11/09 13:02:37;;;;;;;5.82;4.68;;;;;;;1.09;69.95;97566.06;6330067;28;20048;-68
2022/11/09 13:05:39;;;;;;;4.43;3.13;;;;;;;1.16;69.67;97565.09;6332115;28;20067;-68
2022/11/09 13:08:53;;;;;;;4.90;2.92;;;;;;;1.25;69.16;97566.66;6327932;27;20044;-67
2022/11/09 13:11:57;;;;;;;5.20;3.25;;;;;;;1.31;68.81;97571.75;6320557;28;20145;-67
2022/11/09 13:15:40;;;;;;;6.05;3.80;;;;;;;1.25;69.36;97562.34;6322276;28;20558;-68
2022/11/09 13:18:44;;;;;;;5.30;2.88;;;;;;;1.32;69.33;97568.25;6230289;28;20533;-68
2022/11/09 13:21:49;;;;;;;4.15;2.38;;;;;;;1.40;69.06;97560.34;6319366;27;20463;-67
2022/11/09 13:24:58;;;;;;;4.32;3.00;;;;;;;1.34;68.73;97567.34;6322724;28;20044;-68
2022/11/09 13:28:03;;;;;;;5.05;3.55;;;;;;;1.29;69.06;97558.78;6321911;28;20040;-68
2022/11/09 13:31:09;;;;;;;6.90;4.22;;;;;;;1.40;69.08;97589.72;6322597;28;20387;-68
2022/11/09 13:34:49;;;;;;;6.28;3.70;;;;;;;1.49;68.86;97560.19;6319763;28;20040;-67
2022/11/09 13:37:56;;;;;;;4.13;2.83;;;;;;;1.53;68.50;97546.31;6319188;28;20527;-68
2022/11/09 13:41:20;;;;;;;4.53;2.83;;;;;;;1.54;68.45;97566.16;6320540;28;20048;-68
2022/11/09 13:44:28;;;;;;;4.32;2.03;;;;;;;1.53;68.27;97551.50;6321192;28;20046;-68
2022/11/09 13:47:36;;;;;;;5.15;2.78;;;;;;;1.49;68.50;97555.00;6317559;28;20040;-68
2022/11/09 13:50:37;;;;;;;5.10;3.40;;;;;;;1.42;68.61;97553.41;6319909;28;20078;-68
2022/11/09 13:53:52;;;;;;;4.70;3.58;;;;;;;1.43;68.66;97552.53;6318433;28;20395;-68
2022/11/09 13:56:54;;;;;;;5.95;3.67;;;;;;;1.46;68.20;97570.63;6317534;28;20464;-68
2022/11/09 13:59:59;;;;;;;2.88;2.50;;;;;;;1.47;68.47;97556.75;6319458;28;20100;-68
2022/11/09 14:03:16;;;;;;;5.55;3.42;;;;;;;1.37;68.20;97575.97;6318768;28;20508;-68
2022/11/09 14:06:18;;;;;;;5.60;3.53;;;;;;;1.40;68.67;97571.59;6319497;28;20039;-68
2022/11/09 14:09:23;;;;;;;3.03;2.13;;;;;;;1.39;68.51;97566.41;6323476;28;20754;-68
2022/11/09 14:13:07;;;;;;;3.70;2.55;;;;;;;1.43;68.32;97561.16;6333594;28;20082;-69
2022/11/09 14:16:42;;;;;;;3.70;2.65;;;;;;;1.27;69.19;97570.06;6332134;28;20047;-71
2022/11/09 14:19:49;;;;;;;5.18;3.50;;;;;;;1.16;69.51;97577.16;6343200;28;20550;-72
2022/11/09 14:22:51;;;;;;;5.10;3.38;;;;;;;1.17;69.12;97573.72;6334321;28;20406;-74
2022/11/09 14:25:54;;;;;;;4.35;3.60;;;;;;;1.14;69.22;97574.63;6318653;28;20048;-73
2022/11/09 14:29:09;;;;;;;6.57;3.85;;;;;;;1.27;68.68;97581.28;6319718;28;20051;-72
2022/11/09 14:32:29;;;;;;;6.68;3.47;;;;;;;1.23;69.29;97579.63;6319729;28;20602;-75
2022/11/09 14:35:35;;;;;;;7.10;3.75;;;;;;;1.16;69.44;97597.91;6318343;28;20051;-74
2022/11/09 14:38:47;;;;;;;4.72;3.50;;;;;;;1.19;68.73;97577.13;6319863;28;20036;-74
2022/11/09 14:41:51;;;;;;;5.65;3.55;;;;;;;1.17;68.58;97573.72;6319084;28;20502;-74
2022/11/09 14:44:54;;;;;;;5.13;3.00;;;;;;;1.29;68.49;97584.72;6323028;28;20059;-73
2022/11/09 14:47:58;;;;;;;5.57;3.78;;;;;;;1.31;67.89;97574.34;6323093;28;20055;-73
2022/11/09 14:51:01;;;;;;;;;;;;;;;1.39;67.89;97587.16;6323121;28;20040;-73
2022/11/09 14:54:07;;;;;;;3.72;3.13;;;;;;;1.30;68.21;97580.38;6320552;28;19923;-73
2022/11/09 14:57:17;;;;;;;2.17;1.92;;;;;;;1.11;68.81;97579.84;6320440;28;20040;-73
2022/11/09 15:00:33;;;;;;;6.65;3.60;;;;;;;1.14;68.50;97572.03;6321066;28;20031;-70
2022/11/09 15:03:40;;;;;;;6.25;4.35;;;;;;;1.11;68.78;97572.06;6333146;28;20040;-72
2022/11/09 15:07:04;;;;;;;4.75;2.65;;;;;;;1.04;69.17;97560.06;6337105;28;20048;-74
2022/11/09 15:10:16;;;;;;;3.25;1.92;;;;;;;1.24;68.35;97565.78;6342453;28;20120;-72
2022/11/09 15:13:36;;;;;;;3.28;2.13;;;;;;;1.19;68.11;97561.56;6339470;28;20062;-70
2022/11/09 15:16:41;;;;;;;4.30;3.00;;;;;;;1.10;68.04;97559.97;6338977;28;20083;-72
2022/11/09 15:19:49;;;;;;;4.25;2.58;;;;;;;0.96;68.50;97554.16;6345160;28;20148;-70
2022/11/09 15:22:59;;;;;;;3.90;2.45;;;;;;;1.05;68.32;97551.44;6342878;28;20205;-70
2022/11/09 15:26:03;;;;;;;3.53;2.83;;;;;;;1.08;67.13;97548.81;6346724;28;20095;-70
2022/11/09 15:29:40;;;;;;;4.45;3.00;;;;;;;1.06;68.14;97560.91;6344174;28;20045;-68
2022/11/09 15:32:43;;;;;;;3.85;3.10;;;;;;;0.96;67.63;97544.66;6330788;28;20047;-70
2022/11/09 15:36:36;;;;;;;4.15;3.13;;;;;;;1.00;68.15;97561.03;6338227;28;20482;-68
2022/11/09 15:39:43;;;;;;;2.42;1.83;;;;;;;1.00;68.05;97563.63;6343648;28;20427;-70
2022/11/09 15:42:47;;;;;;;3.50;3.17;;;;;;;0.95;67.98;97562.81;6340784;28;20109;-72
2022/11/09 15:45:50;;;;;;;;;;;;;;;1.21;67.46;97565.84;6344554;28;20058;-70
2022/11/09 15:48:55;;;;;;;3.65;2.45;;;;;;;1.21;67.11;97568.44;6342995;28;19969;-71
2022/11/09 15:51:58;;;;;;;2.38;2.03;;;;;;;0.96;67.63;97564.53;6341331;28;21213;-72
2022/11/09 15:55:03;;;;;;;3.38;3.05;;;;;;;0.90;67.93;97566.31;6348244;28;20043;-70
2022/11/09 15:58:08;;;;;;;3.60;2.90;;;;;;;0.94;67.90;97571.50;6338054;28;20514;-70
2022/11/09 16:01:14;;;;;;;4.43;2.90;;;;;;;0.96;68.08;97554.16;6343191;28;20040;-70
2022/11/09 16:04:19;;;;;;;2.90;2.05;;;;;;;0.95;67.77;97547.28;6345522;28;20035;-71
2022/11/09 16:07:20;;;;;;;2.80;2.45;;;;;;;0.90;68.02;97558.56;6335657;28;20090;-72
2022/11/09 16:10:29;;;;;;;4.47;3.60;;;;;;;0.82;68.56;97557.84;6340988;28;20035;-69
2022/11/09 16:13:33;;;;;;;4.13;3.20;;;;;;;0.84;68.82;97550.88;6339604;28;20096;-70
2022/11/09 16:16:39;;;;;;;3.83;3.17;;;;;;;0.92;68.50;97552.50;6340754;28;20058;-73
2022/11/09 16:19:42;;;;;;;3.75;3.30;;;;;;;0.84;68.47;97555.22;6341955;28;20050;-68
2022/11/09 16:22:47;;;;;;;5.38;3.63;;;;;;;0.99;68.26;97554.09;6342708;28;20036;-69
2022/11/09 16:25:48;;;;;;;4.32;3.30;;;;;;;1.06;67.99;97559.19;6345365;28;20154;-70
2022/11/09 16:28:55;;;;;;;4.55;3.22;;;;;;;0.90;68.67;97566.31;6341403;28;20047;-69
2022/11/09 16:32:00;;;;;;;4.47;3.17;;;;;;;0.94;68.08;97555.94;6341378;28;20040;-72
2022/11/09 16:35:05;;;;;;;4.63;3.67;;;;;;;0.83;68.83;97564.72;6338750;28;20051;-69
2022/11/09 16:38:09;;;;;;;3.83;2.90;;;;;;;0.90;68.61;97555.97;6324446;28;20051;-69
2022/11/09 16:41:15;;;;;;;;;;;;;;;1.03;67.81;97554.03;6339324;27;20036;-69
2022/11/09 16:44:21;;;;;;;2.97;2.42;;;;;;;1.01;67.12;97558.38;6335360;28;19923;-69
2022/11/09 16:47:26;;;;;;;3.38;2.28;;;;;;;0.96;66.73;97561.94;6338618;28;20494;-68
2022/11/09 16:50:28;;;;;;;2.58;2.35;;;;;;;1.02;65.90;97554.06;6331350;28;20126;-71
2022/11/09 16:53:35;;;;;;;4.63;2.80;;;;;;;0.92;66.41;97544.75;6333715;28;20052;-71
2022/11/09 16:56:42;;;;;;;4.43;3.15;;;;;;;0.88;66.62;97551.72;6332681;28;20040;-71
2022/11/09 16:59:49;;;;;;;5.10;3.53;;;;;;;0.85;67.25;97551.72;6346036;28;20043;-68
2022/11/09 17:02:50;;;;;;;;;;;;;;;1.01;66.66;97557.53;6344073;28;20181;-69
2022/11/09 17:05:51;;;;;;;3.47;2.72;;;;;;;0.90;66.59;97561.16;6346190;28;19919;-71
2022/11/09 17:08:55;;;;;;;4.53;3.72;;;;;;;0.77;67.54;97554.47;6327450;28;20134;-70
2022/11/09 17:12:03;;;;;;;4.28;3.15;;;;;;;0.90;66.60;97543.00;6338740;28;20039;-72
2022/11/09 17:15:06;;;;;;;5.65;3.58;;;;;;;0.90;66.56;97571.50;6341006;28;20132;-70
2022/11/09 17:18:08;;;;;;;5.93;3.97;;;;;;;0.83;67.24;97567.31;6331550;28;20048;-71
2022/11/09 17:21:13;;;;;;;5.57;3.58;;;;;;;0.95;66.46;97573.19;6331053;28;20127;-70
2022/11/09 17:24:19;;;;;;;4.38;3.10;;;;;;;0.90;66.65;97581.88;6339456;28;20044;-69
2022/11/09 17:27:21;;;;;;;3.63;3.13;;;;;;;0.68;67.45;97580.50;6331623;28;20426;-70
2022/11/09 17:30:23;;;;;;;4.85;2.85;;;;;;;0.66;67.20;97577.06;6337756;28;20117;-69
2022/11/09 17:33:27;;;;;;;2.53;2.08;;;;;;;0.85;66.61;97588.88;6339352;28;20079;-70
2022/11/09 17:36:28;;;;;;;3.67;3.00;;;;;;;0.74;66.45;97595.94;6336368;28;20614;-69